Wykagyl, New York
Current Conditions -  °F | °C
As of 8:56 PM on Saturday 25 Oct 2014 (Local Time) from KHPN Reporting Station
Clear Clear  
Wind Chill: 16°   Ceiling: Unl
Heat Index: 16°   Visibility: 10mi
Dew Point:   Wind: 0mph
Humidity: 53%   Direction: NA
Pressure: 29.59"   Gusts: NA
Location:  40.95°N, 73.79°W
Report Text: KHPN 260056Z 00000KT 10SM CLR 16/06 A2959 RMK AO2 SLP021 T01560061
Loading
Personal Weather Stations






























Interactive Weather Map
Tropical Storm Tracking
New forecast layout! Learn more

10-Day Weather Forecast

Advertisements
Track Severe Weather on mobile